createdAt,value
2019-05-22T00:00:38.823Z,12.39
2019-05-22T00:01:38.853Z,12.37
2019-05-22T00:02:38.834Z,12.31
2019-05-22T00:03:38.950Z,12.28
2019-05-22T00:04:38.782Z,12.35
2019-05-22T00:05:38.842Z,12.28
2019-05-22T00:06:38.753Z,12.20
2019-05-22T00:07:38.944Z,12.21
2019-05-22T00:08:38.775Z,12.21
2019-05-22T00:09:38.874Z,12.20
2019-05-22T00:10:38.710Z,12.18
2019-05-22T00:11:39.832Z,12.09
2019-05-22T00:12:46.713Z,12.13
2019-05-22T00:13:39.715Z,12.15
2019-05-22T00:14:38.836Z,12.10
2019-05-22T00:15:38.892Z,12.09
2019-05-22T00:16:38.828Z,12.18
2019-05-22T00:17:38.640Z,12.15
2019-05-22T00:18:39.782Z,12.02
2019-05-22T00:19:38.646Z,12.13
2019-05-22T00:20:38.772Z,12.12
2019-05-22T00:21:38.612Z,11.99
2019-05-22T00:22:38.652Z,12.04
2019-05-22T00:23:38.594Z,12.02
2019-05-22T00:24:38.743Z,12.07
2019-05-22T00:25:38.544Z,12.06
2019-05-22T00:26:38.682Z,12.02
2019-05-22T00:27:38.521Z,12.10
2019-05-22T00:28:38.517Z,12.07
2019-05-22T00:29:38.562Z,12.00
2019-05-22T00:30:38.605Z,12.06
2019-05-22T00:31:38.504Z,12.03
2019-05-22T00:32:38.621Z,12.02
2019-05-22T00:33:38.509Z,12.06
2019-05-22T00:34:38.501Z,12.07
2019-05-22T00:35:38.495Z,12.07
2019-05-22T00:36:38.422Z,12.07
2019-05-22T00:37:38.553Z,12.02
2019-05-22T00:38:38.404Z,11.99
2019-05-22T00:39:38.429Z,12.03
2019-05-22T00:40:38.395Z,12.04
2019-05-22T00:41:38.491Z,12.02
2019-05-22T00:42:38.378Z,12.03
2019-05-22T00:43:38.543Z,12.04
2019-05-22T00:44:38.336Z,12.04
2019-05-22T00:45:38.392Z,11.99
2019-05-22T00:46:38.405Z,12.00
2019-05-22T00:47:38.329Z,11.99
2019-05-22T00:48:38.475Z,12.06
2019-05-22T00:49:38.285Z,12.06
2019-05-22T00:50:38.311Z,11.99
2019-05-22T00:51:38.263Z,12.06
2019-05-22T00:52:38.412Z,12.02
2019-05-22T00:53:38.255Z,12.03
2019-05-22T00:54:38.383Z,11.97
2019-05-22T00:55:38.263Z,11.94
2019-05-22T00:56:38.211Z,12.03
2019-05-22T00:57:38.272Z,11.94
2019-05-22T00:58:38.187Z,11.94
2019-05-22T00:59:39.300Z,11.94
2019-05-22T01:00:38.219Z,11.97
2019-05-22T01:01:38.487Z,12.00
2019-05-22T01:02:38.150Z,11.90
2019-05-22T01:03:38.216Z,11.90
2019-05-22T01:04:38.155Z,11.97
2019-05-22T01:06:48.072Z,12.03
2019-05-22T01:07:48.015Z,11.97
2019-05-22T01:08:48.175Z,11.97
2019-05-22T01:09:47.996Z,11.94
2019-05-22T01:10:48.088Z,11.95
2019-05-22T01:11:48.035Z,12.00
2019-05-22T01:12:47.971Z,11.99
2019-05-22T01:13:47.952Z,11.95
2019-05-22T01:14:48.174Z,11.94
2019-05-22T01:15:47.933Z,11.91
2019-05-22T01:16:48.042Z,11.86
2019-05-22T01:17:47.922Z,11.88
2019-05-22T01:18:47.909Z,11.91
2019-05-22T01:19:48.137Z,11.88
2019-05-22T01:20:47.887Z,11.87
2019-05-22T01:21:47.959Z,11.86
2019-05-22T01:22:47.916Z,11.87
2019-05-22T01:23:47.857Z,11.86
2019-05-22T01:24:47.879Z,11.83
2019-05-22T01:25:47.983Z,11.90
2019-05-22T01:26:47.870Z,11.80
2019-05-22T01:27:47.897Z,11.86
2019-05-22T01:28:47.843Z,11.78
2019-05-22T01:29:47.922Z,11.77
2019-05-22T01:30:47.783Z,11.81
2019-05-22T01:31:47.889Z,11.94
2019-05-22T01:32:47.766Z,11.73
2019-05-22T01:33:47.856Z,11.78
2019-05-22T01:34:47.838Z,11.78
2019-05-22T01:35:47.715Z,11.75
2019-05-22T01:36:47.910Z,11.73
2019-05-22T01:37:47.710Z,11.78
2019-05-22T01:38:47.777Z,11.78
2019-05-22T01:39:47.668Z,11.83
2019-05-22T01:40:47.793Z,11.73
2019-05-22T01:41:47.758Z,11.78
2019-05-22T01:42:47.792Z,11.78
2019-05-22T01:43:47.634Z,11.77
2019-05-22T01:45:00.248Z,11.75
2019-05-22T01:45:48.661Z,11.77
2019-05-22T01:46:48.557Z,11.72
2019-05-22T01:47:47.599Z,11.77
2019-05-22T01:48:47.734Z,11.75
2019-05-22T01:49:47.577Z,11.72
2019-05-22T01:50:47.558Z,11.80
2019-05-22T01:51:47.606Z,11.68
2019-05-22T01:52:48.740Z,11.68
2019-05-22T01:53:47.552Z,11.78
2019-05-22T01:54:54.219Z,11.65
2019-05-22T01:55:48.506Z,11.69
2019-05-22T01:56:47.536Z,11.66
2019-05-22T01:57:47.570Z,11.65
2019-05-22T01:58:49.552Z,11.72
2019-05-22T01:59:47.489Z,11.63
2019-05-22T02:00:47.621Z,11.66
2019-05-22T02:01:47.460Z,11.63
2019-05-22T02:02:47.437Z,11.72
2019-05-22T02:03:47.527Z,11.69
2019-05-22T02:04:47.415Z,11.63
2019-05-22T02:05:47.607Z,11.70
2019-05-22T02:06:47.420Z,11.65
2019-05-22T02:07:47.385Z,11.65
2019-05-22T02:08:47.462Z,11.66
2019-05-22T02:09:47.367Z,11.63
2019-05-22T02:10:47.523Z,11.63
2019-05-22T02:11:47.335Z,11.68
2019-05-22T02:12:47.408Z,11.62
2019-05-22T02:13:47.327Z,11.66
2019-05-22T02:14:47.391Z,11.62
2019-05-22T02:15:47.293Z,11.69
2019-05-22T02:16:56.685Z,11.69
2019-05-22T02:17:48.279Z,11.69
2019-05-22T02:18:47.322Z,11.70
2019-05-22T02:19:47.373Z,11.63
2019-05-22T02:20:47.267Z,11.70
2019-05-22T02:21:47.394Z,11.65
2019-05-22T02:22:47.224Z,11.57
2019-05-22T02:23:47.227Z,11.69
2019-05-22T02:24:47.273Z,11.65
2019-05-22T02:25:47.260Z,11.63
2019-05-22T02:26:47.190Z,11.59
2019-05-22T02:27:47.285Z,11.59
2019-05-22T02:28:47.207Z,11.57
2019-05-22T02:29:47.156Z,11.54
2019-05-22T02:30:47.276Z,11.55
2019-05-22T02:31:47.183Z,11.51
2019-05-22T02:32:47.207Z,11.52
2019-05-22T02:33:47.113Z,11.52
2019-05-22T02:34:47.110Z,11.51
2019-05-22T02:35:47.160Z,11.51
2019-05-22T02:36:49.182Z,11.52
2019-05-22T02:37:47.128Z,11.48
2019-05-22T02:38:47.157Z,11.52
2019-05-22T02:39:47.059Z,11.55
2019-05-22T02:40:47.131Z,11.54
2019-05-22T02:41:53.631Z,11.52
2019-05-22T02:42:47.028Z,11.51
2019-05-22T02:43:49.135Z,11.54
2019-05-22T02:44:46.999Z,11.55
2019-05-22T02:45:47.033Z,11.62
2019-05-22T02:46:47.006Z,11.59
2019-05-22T02:47:47.142Z,11.54
2019-05-22T02:48:46.953Z,11.50
2019-05-22T02:49:47.087Z,11.55
2019-05-22T02:50:46.926Z,11.48
2019-05-22T02:51:47.024Z,11.57
2019-05-22T02:52:46.953Z,11.54
2019-05-22T02:53:47.062Z,11.51
2019-05-22T02:54:46.889Z,11.52
2019-05-22T02:55:46.951Z,11.51
2019-05-22T02:56:47.034Z,11.48
2019-05-22T02:57:46.855Z,11.55
2019-05-22T02:58:46.983Z,11.50
2019-05-22T02:59:46.842Z,11.55
2019-05-22T03:00:46.954Z,11.57
2019-05-22T03:01:46.857Z,11.51
2019-05-22T03:02:46.891Z,11.62
2019-05-22T03:03:46.804Z,11.54
2019-05-22T03:04:46.859Z,11.54
2019-05-22T03:05:46.764Z,11.54
2019-05-22T03:06:46.823Z,11.57
2019-05-22T03:07:46.849Z,11.55
2019-05-22T03:08:46.779Z,11.54
2019-05-22T03:09:46.865Z,11.54
2019-05-22T03:10:46.761Z,11.54
2019-05-22T03:11:46.760Z,11.55
2019-05-22T03:12:46.736Z,11.52
2019-05-22T03:13:46.779Z,11.60
2019-05-22T03:14:46.668Z,11.54
2019-05-22T03:15:46.792Z,11.52
2019-05-22T03:16:46.653Z,11.52
2019-05-22T03:17:46.751Z,11.57
2019-05-22T03:18:47.630Z,11.59
2019-05-22T03:19:46.629Z,11.59
2019-05-22T03:20:46.711Z,11.50
2019-05-22T03:21:46.596Z,11.57
2019-05-22T03:22:46.684Z,11.51
2019-05-22T03:23:46.619Z,11.51
2019-05-22T03:24:46.639Z,11.45
2019-05-22T03:25:46.580Z,11.48
2019-05-22T03:26:46.659Z,11.44
2019-05-22T03:27:46.572Z,11.48
2019-05-22T03:28:46.663Z,11.51
2019-05-22T03:29:46.531Z,11.51
2019-05-22T03:30:46.599Z,11.43
2019-05-22T03:31:46.509Z,11.50
2019-05-22T03:32:47.568Z,11.48
2019-05-22T03:33:46.483Z,11.51
2019-05-22T03:34:46.525Z,11.52
2019-05-22T03:35:46.625Z,11.47
2019-05-22T03:36:46.510Z,11.41
2019-05-22T03:37:46.474Z,11.37
2019-05-22T03:38:46.521Z,11.41
2019-05-22T03:39:46.400Z,11.45
2019-05-22T03:40:46.411Z,11.45
2019-05-22T03:41:46.500Z,11.43
2019-05-22T03:42:46.369Z,11.44
2019-05-22T03:43:46.448Z,11.50
2019-05-22T03:44:47.065Z,11.40
2019-05-22T03:45:46.384Z,11.50
2019-05-22T03:46:46.323Z,11.37
2019-05-22T03:47:46.400Z,11.41
2019-05-22T03:48:46.304Z,11.37
2019-05-22T03:49:46.477Z,11.48
2019-05-22T03:50:46.291Z,11.43
2019-05-22T03:51:46.326Z,11.43
2019-05-22T03:52:46.312Z,11.40
2019-05-22T03:53:46.273Z,11.44
2019-05-22T03:54:46.318Z,11.33
2019-05-22T03:55:46.268Z,11.36
2019-05-22T03:56:46.260Z,11.37
2019-05-22T03:57:46.222Z,11.41
2019-05-22T03:58:46.265Z,11.43
2019-05-22T03:59:46.185Z,11.40
2019-05-22T04:00:46.312Z,11.40
2019-05-22T04:01:46.252Z,11.36
2019-05-22T04:02:46.154Z,11.37
2019-05-22T04:03:46.178Z,11.35
2019-05-22T04:04:46.143Z,11.36
2019-05-22T04:05:46.254Z,11.33
2019-05-22T04:06:46.116Z,11.29
2019-05-22T04:07:46.100Z,11.27
2019-05-22T04:08:46.171Z,11.29
2019-05-22T04:10:46.068Z,11.32
2019-05-22T04:11:52.681Z,11.27
2019-05-22T04:12:46.055Z,11.29
2019-05-22T04:13:46.081Z,11.25
2019-05-22T04:14:47.087Z,11.22
2019-05-22T04:15:46.063Z,11.23
2019-05-22T04:16:46.058Z,11.23
2019-05-22T04:17:45.993Z,11.18
2019-05-22T04:18:45.982Z,11.19
2019-05-22T04:19:50.079Z,11.17
2019-05-22T04:20:47.048Z,11.25
2019-05-22T04:21:45.953Z,11.14
2019-05-22T04:22:45.994Z,11.17
2019-05-22T04:23:46.000Z,11.11
2019-05-22T04:24:46.013Z,11.07
2019-05-22T04:25:45.957Z,11.08
2019-05-22T04:26:46.046Z,11.05
2019-05-22T04:27:45.907Z,11.02
2019-05-22T04:28:46.015Z,11.05
2019-05-22T04:29:45.944Z,11.10
2019-05-22T04:30:45.876Z,11.04
2019-05-22T04:31:45.972Z,11.00
2019-05-22T04:32:45.839Z,11.00
2019-05-22T04:33:45.923Z,11.04
2019-05-22T04:34:45.820Z,11.00
2019-05-22T04:35:45.890Z,11.04
2019-05-22T04:36:45.789Z,11.04
2019-05-22T04:37:46.004Z,10.94
2019-05-22T04:38:45.797Z,10.92
2019-05-22T04:39:45.807Z,10.99
2019-05-22T04:40:45.810Z,10.99
2019-05-22T04:41:45.758Z,10.93
2019-05-22T04:42:45.910Z,10.87
2019-05-22T04:43:45.722Z,10.94
2019-05-22T04:44:45.754Z,10.89
2019-05-22T04:45:45.712Z,10.90
2019-05-22T04:46:45.806Z,10.93
2019-05-22T04:47:45.698Z,10.86
2019-05-22T04:48:46.659Z,10.87
2019-05-22T04:49:45.650Z,10.81
2019-05-22T04:50:46.877Z,10.84
2019-05-22T04:51:45.664Z,10.87
2019-05-22T04:52:45.790Z,10.82
2019-05-22T04:53:45.676Z,10.76
2019-05-22T04:54:45.818Z,10.82
2019-05-22T04:55:45.593Z,10.78
2019-05-22T04:56:45.589Z,10.79
2019-05-22T04:57:45.581Z,10.74
2019-05-22T04:58:45.874Z,10.75
2019-05-22T04:59:45.549Z,10.74
2019-05-22T05:00:45.737Z,10.67
2019-05-22T05:01:45.549Z,10.72
2019-05-22T05:02:45.520Z,10.71
2019-05-22T05:03:45.550Z,10.72
2019-05-22T05:04:45.727Z,10.72
2019-05-22T05:05:45.489Z,10.64
2019-05-22T05:06:46.494Z,10.67
2019-05-22T05:07:45.684Z,10.63
2019-05-22T05:08:45.534Z,10.69
2019-05-22T05:09:45.594Z,10.68
2019-05-22T05:10:45.433Z,10.68
2019-05-22T05:11:45.627Z,10.71
2019-05-22T05:12:45.457Z,10.72
2019-05-22T05:13:45.410Z,10.64
2019-05-22T05:14:45.532Z,10.54
2019-05-22T05:15:45.414Z,10.57
2019-05-22T05:16:45.539Z,10.51
2019-05-22T05:17:45.417Z,10.49
2019-05-22T05:18:45.369Z,10.51
2019-05-22T05:19:45.337Z,10.49
2019-05-22T05:20:45.464Z,10.35
2019-05-22T05:21:45.356Z,10.41
2019-05-22T05:22:45.623Z,10.40
2019-05-22T05:23:45.294Z,10.40
2019-05-22T05:24:45.316Z,10.37
2019-05-22T05:25:45.282Z,10.35
2019-05-22T05:26:45.470Z,10.38
2019-05-22T05:27:45.252Z,10.37
2019-05-22T05:28:45.435Z,10.35
2019-05-22T05:29:45.420Z,10.33
2019-05-22T05:30:45.296Z,10.33
2019-05-22T05:31:45.414Z,10.30
2019-05-22T05:32:45.213Z,10.30
2019-05-22T05:33:45.345Z,10.31
2019-05-22T05:34:45.589Z,10.26
2019-05-22T05:35:45.190Z,10.25
2019-05-22T05:36:45.362Z,10.22
2019-05-22T05:37:45.218Z,10.23
2019-05-22T05:38:45.276Z,10.25
2019-05-22T05:39:45.147Z,10.26
2019-05-22T05:40:45.194Z,10.25
2019-05-22T05:41:45.107Z,10.25
2019-05-22T05:42:45.478Z,10.30
2019-05-22T05:43:45.097Z,10.31
2019-05-22T05:44:45.192Z,10.34
2019-05-22T05:45:45.067Z,10.34
2019-05-22T05:46:45.068Z,10.37
2019-05-22T05:47:45.233Z,10.31
2019-05-22T05:48:45.037Z,10.30
2019-05-22T05:49:45.221Z,10.34
2019-05-22T05:50:45.026Z,10.34
2019-05-22T05:51:45.043Z,10.40
2019-05-22T05:52:45.049Z,10.34
2019-05-22T05:53:45.175Z,10.41
2019-05-22T05:54:44.967Z,10.40
2019-05-22T05:55:45.157Z,10.31
2019-05-22T05:56:45.029Z,10.41
2019-05-22T05:57:44.947Z,10.38
2019-05-22T05:58:45.171Z,10.37
2019-05-22T05:59:44.930Z,10.37
2019-05-22T06:00:45.056Z,10.41
2019-05-22T06:01:44.901Z,10.40
2019-05-22T06:02:56.200Z,10.40
2019-05-22T06:03:45.995Z,10.41
2019-05-22T06:04:45.101Z,10.44
2019-05-22T06:05:44.901Z,10.40
2019-05-22T06:06:44.966Z,10.44
2019-05-22T06:07:44.900Z,10.38
2019-05-22T06:08:44.918Z,10.46
2019-05-22T06:09:44.974Z,10.49
2019-05-22T06:10:44.833Z,10.38
2019-05-22T06:11:44.997Z,10.51
2019-05-22T06:12:44.843Z,10.53
2019-05-22T06:13:44.900Z,10.51
2019-05-22T06:14:44.770Z,10.57
2019-05-22T06:15:47.629Z,10.44
2019-05-22T06:16:44.810Z,10.56
2019-05-22T06:17:44.941Z,10.53
2019-05-22T06:18:44.719Z,10.48
2019-05-22T06:19:44.730Z,10.48
2019-05-22T06:21:01.209Z,10.56
2019-05-22T06:21:45.733Z,10.53
2019-05-22T06:22:44.675Z,10.59
2019-05-22T06:23:45.782Z,10.57
2019-05-22T06:24:44.872Z,10.57
2019-05-22T06:25:44.694Z,10.60
2019-05-22T06:26:44.656Z,10.54
2019-05-22T06:27:44.822Z,10.57
2019-05-22T06:28:44.610Z,10.56
2019-05-22T06:29:44.782Z,10.54
2019-05-22T06:30:44.745Z,10.51
2019-05-22T06:31:44.578Z,10.53
2019-05-22T06:32:44.716Z,10.46
2019-05-22T06:33:44.578Z,10.49
2019-05-22T06:34:44.788Z,10.41
2019-05-22T06:35:44.545Z,10.48
2019-05-22T06:36:44.668Z,10.44
2019-05-22T06:37:44.555Z,10.53
2019-05-22T06:38:44.706Z,10.44
2019-05-22T06:39:44.499Z,10.51
2019-05-22T06:40:46.613Z,10.49
2019-05-22T06:41:44.520Z,10.48
2019-05-22T06:42:44.524Z,10.48
2019-05-22T06:43:44.537Z,10.48
2019-05-22T06:44:44.605Z,10.49
2019-05-22T06:45:44.435Z,10.60
2019-05-22T06:46:45.548Z,10.57
2019-05-22T06:47:44.410Z,10.53
2019-05-22T06:48:44.441Z,10.53
2019-05-22T06:49:44.630Z,10.53
2019-05-22T06:50:44.373Z,10.57
2019-05-22T06:51:44.572Z,10.54
2019-05-22T06:52:44.355Z,10.59
2019-05-22T06:53:44.414Z,10.60
2019-05-22T06:54:44.337Z,10.61
2019-05-22T06:55:44.460Z,10.74
2019-05-22T06:56:44.406Z,10.60
2019-05-22T06:57:44.504Z,10.68
2019-05-22T06:58:44.297Z,10.72
2019-05-22T06:59:44.390Z,10.68
2019-05-22T07:00:44.324Z,10.76
2019-05-22T07:01:44.402Z,10.72
2019-05-22T07:02:44.281Z,10.72
2019-05-22T07:03:44.481Z,10.76
2019-05-22T07:04:44.232Z,10.79
2019-05-22T07:05:44.219Z,10.68
2019-05-22T07:06:44.344Z,10.68
2019-05-22T07:07:44.193Z,10.74
2019-05-22T07:08:44.447Z,10.81
2019-05-22T07:09:44.224Z,10.81
2019-05-22T07:10:44.224Z,10.86
2019-05-22T07:11:44.196Z,10.86
2019-05-22T07:12:44.275Z,10.84
2019-05-22T07:13:44.137Z,10.79
2019-05-22T07:14:44.296Z,10.92
2019-05-22T07:15:44.275Z,10.93
2019-05-22T07:16:44.100Z,10.86
2019-05-22T07:17:45.226Z,10.93
2019-05-22T07:18:44.085Z,10.99
2019-05-22T07:19:44.215Z,11.04
2019-05-22T07:20:44.112Z,10.99
2019-05-22T07:21:44.230Z,10.97
2019-05-22T07:22:44.224Z,10.96
2019-05-22T07:23:44.200Z,10.99
2019-05-22T07:24:44.030Z,10.97
2019-05-22T07:25:44.212Z,11.00
2019-05-22T07:26:43.987Z,11.04
2019-05-22T07:27:44.039Z,11.14
2019-05-22T07:28:43.974Z,11.17
2019-05-22T07:29:44.098Z,11.15
2019-05-22T07:30:43.947Z,11.19
2019-05-22T07:31:45.143Z,11.18
2019-05-22T07:32:43.952Z,11.23
2019-05-22T07:33:43.945Z,11.23
2019-05-22T07:34:44.027Z,11.23
2019-05-22T07:36:04.582Z,11.25
2019-05-22T07:36:44.895Z,11.18
2019-05-22T07:37:44.053Z,11.15
2019-05-22T07:38:43.966Z,11.14
2019-05-22T07:39:43.981Z,11.18
2019-05-22T07:40:43.948Z,11.23
2019-05-22T07:41:43.964Z,11.22
2019-05-22T07:42:43.833Z,11.22
2019-05-22T07:43:44.036Z,11.19
2019-05-22T07:44:43.801Z,11.19
2019-05-22T07:45:43.952Z,11.22
2019-05-22T07:46:43.814Z,11.29
2019-05-22T07:47:44.031Z,11.36
2019-05-22T07:48:43.955Z,11.36
2019-05-22T07:49:43.981Z,11.22
2019-05-22T07:50:47.931Z,11.30
2019-05-22T07:51:54.047Z,11.27
2019-05-22T07:52:44.730Z,11.40
2019-05-22T07:53:43.898Z,11.44
2019-05-22T07:54:43.705Z,11.40
2019-05-22T07:55:43.753Z,11.37
2019-05-22T07:56:43.667Z,11.36
2019-05-22T07:57:43.761Z,11.37
2019-05-22T07:58:44.674Z,11.44
2019-05-22T07:59:43.854Z,11.26
2019-05-22T08:00:43.635Z,11.37
2019-05-22T08:01:43.636Z,11.37
2019-05-22T08:02:43.803Z,11.47
2019-05-22T08:03:43.661Z,11.44
2019-05-22T08:04:43.697Z,11.40
2019-05-22T08:05:43.584Z,11.44
2019-05-22T08:06:43.723Z,11.45
2019-05-22T08:07:43.582Z,11.47
2019-05-22T08:08:45.758Z,11.51
2019-05-22T08:09:43.554Z,11.59
2019-05-22T08:10:50.190Z,11.54
2019-05-22T08:11:43.550Z,11.51
2019-05-22T08:12:43.509Z,11.51
2019-05-22T08:13:44.033Z,11.57
2019-05-22T08:14:43.677Z,11.59
2019-05-22T08:15:47.698Z,11.62
2019-05-22T08:16:43.584Z,11.66
2019-05-22T08:17:43.511Z,11.65
2019-05-22T08:18:43.458Z,11.68
2019-05-22T08:19:43.655Z,11.68
2019-05-22T08:20:43.417Z,11.77
2019-05-22T08:21:43.579Z,11.66
2019-05-22T08:22:43.398Z,11.75
2019-05-22T08:23:43.417Z,11.90
2019-05-22T08:24:43.387Z,11.72
2019-05-22T08:25:43.548Z,11.86
2019-05-22T08:26:53.732Z,11.78
2019-05-22T08:27:44.349Z,11.75
2019-05-22T08:28:43.837Z,11.80
2019-05-22T08:29:43.338Z,11.78
2019-05-22T08:30:43.527Z,11.70
2019-05-22T08:31:43.336Z,11.69
2019-05-22T08:32:43.496Z,11.62
2019-05-22T08:33:43.339Z,11.59
2019-05-22T08:34:43.288Z,11.55
2019-05-22T08:35:43.268Z,11.44
2019-05-22T08:36:43.394Z,11.55
2019-05-22T08:37:43.295Z,11.50
2019-05-22T08:38:43.409Z,11.44
2019-05-22T08:39:43.250Z,11.51
2019-05-22T08:40:43.240Z,11.52
2019-05-22T08:41:43.217Z,11.60
2019-05-22T08:42:43.345Z,11.59
2019-05-22T08:44:11.251Z,11.69
2019-05-22T08:44:44.174Z,11.72
2019-05-22T08:45:43.244Z,11.77
2019-05-22T08:46:44.287Z,11.81
2019-05-22T08:47:43.205Z,11.94
2019-05-22T08:48:47.786Z,11.94
2019-05-22T08:49:44.144Z,11.88
2019-05-22T08:50:43.267Z,11.97
2019-05-22T08:51:43.196Z,11.97
2019-05-22T08:52:43.114Z,12.03
2019-05-22T08:53:48.418Z,12.03
2019-05-22T08:54:44.126Z,11.88
2019-05-22T08:55:43.222Z,12.02
2019-05-22T08:56:43.050Z,11.95
2019-05-22T08:57:43.029Z,11.91
2019-05-22T08:58:44.169Z,11.86
2019-05-22T08:59:43.024Z,11.95
2019-05-22T09:00:44.147Z,11.91
2019-05-22T09:01:42.998Z,11.95
2019-05-22T09:02:42.998Z,12.00
2019-05-22T09:03:42.951Z,12.22
2019-05-22T09:04:43.120Z,12.25
2019-05-22T09:05:42.991Z,12.39
2019-05-22T09:06:43.997Z,12.47
2019-05-22T09:07:42.920Z,12.42
2019-05-22T09:08:42.908Z,12.31
2019-05-22T09:09:43.065Z,12.35
2019-05-22T09:10:42.947Z,12.37
2019-05-22T09:11:43.940Z,12.47
2019-05-22T09:12:42.904Z,12.49
2019-05-22T09:13:42.948Z,12.43
2019-05-22T09:14:42.860Z,12.46
2019-05-22T09:15:42.945Z,12.39
2019-05-22T09:16:42.828Z,12.37
2019-05-22T09:17:42.974Z,12.37
2019-05-22T09:18:42.833Z,12.45
2019-05-22T09:19:42.824Z,12.46
2019-05-22T09:20:49.300Z,12.50
2019-05-22T09:21:43.906Z,12.60
2019-05-22T09:22:42.756Z,12.55
2019-05-22T09:23:42.959Z,12.60
2019-05-22T09:24:42.845Z,12.61
2019-05-22T09:25:42.717Z,12.60
2019-05-22T09:26:42.934Z,12.55
2019-05-22T09:27:42.767Z,12.49
2019-05-22T09:28:42.843Z,12.46
2019-05-22T09:29:42.679Z,12.37
2019-05-22T09:30:42.756Z,12.35
2019-05-22T09:31:42.723Z,12.35
2019-05-22T09:32:42.749Z,12.32
2019-05-22T09:33:42.644Z,12.35
2019-05-22T09:34:42.805Z,12.36
2019-05-22T09:35:42.735Z,12.37
2019-05-22T09:36:42.635Z,12.54
2019-05-22T09:37:42.631Z,12.65
2019-05-22T09:38:43.777Z,12.65
2019-05-22T09:39:42.590Z,12.72
2019-05-22T09:40:42.721Z,12.67
2019-05-22T09:41:42.559Z,12.79
2019-05-22T09:42:45.746Z,12.67
2019-05-22T09:43:42.552Z,12.80
2019-05-22T09:44:50.330Z,12.78
2019-05-22T09:45:42.557Z,12.73
2019-05-22T09:46:43.622Z,12.90
2019-05-22T09:47:42.517Z,12.85
2019-05-22T09:48:42.468Z,12.90
2019-05-22T09:49:42.455Z,12.91
2019-05-22T09:50:42.556Z,12.90
2019-05-22T09:51:42.487Z,12.93
2019-05-22T09:52:56.361Z,12.87
2019-05-22T09:53:43.523Z,13.05
2019-05-22T09:54:42.433Z,13.12
2019-05-22T09:55:47.497Z,13.18
2019-05-22T09:56:42.398Z,13.31
2019-05-22T09:57:42.534Z,13.27
2019-05-22T09:58:42.533Z,13.38
2019-05-22T09:59:42.440Z,13.42
2019-05-22T10:00:42.454Z,13.41
2019-05-22T10:01:42.368Z,13.44
2019-05-22T10:02:42.580Z,13.44
2019-05-22T10:03:42.532Z,13.31
2019-05-22T10:04:42.464Z,13.20
2019-05-22T10:05:42.373Z,13.18
2019-05-22T10:06:42.575Z,13.19
2019-05-22T10:07:57.735Z,13.23
2019-05-22T10:08:43.266Z,13.20
2019-05-22T10:09:42.299Z,13.31
2019-05-22T10:10:42.258Z,13.38
2019-05-22T10:11:42.456Z,13.31
2019-05-22T10:12:42.299Z,13.35
2019-05-22T10:13:43.290Z,13.13
2019-05-22T10:14:42.214Z,13.08
2019-05-22T10:15:42.240Z,13.09
2019-05-22T10:16:42.336Z,13.03
2019-05-22T10:17:42.290Z,13.05
2019-05-22T10:18:42.169Z,13.09
2019-05-22T10:19:42.281Z,12.98
2019-05-22T10:20:42.134Z,13.05
2019-05-22T10:21:42.335Z,13.15
2019-05-22T10:22:42.103Z,13.30
2019-05-22T10:23:43.216Z,13.41
2019-05-22T10:24:42.124Z,13.54
2019-05-22T10:25:42.230Z,13.60
2019-05-22T10:26:44.212Z,13.77
2019-05-22T10:27:42.082Z,14.00
2019-05-22T10:28:43.090Z,14.11
2019-05-22T10:29:42.088Z,13.93
2019-05-22T10:30:43.088Z,13.93
2019-05-22T10:31:42.061Z,14.05
2019-05-22T10:32:42.104Z,14.15
2019-05-22T10:33:42.010Z,14.04
2019-05-22T10:34:42.083Z,13.87
2019-05-22T10:35:42.071Z,13.77
2019-05-22T10:36:43.233Z,13.92
2019-05-22T10:37:41.966Z,13.97
2019-05-22T10:38:42.192Z,13.97
2019-05-22T10:39:41.941Z,14.08
2019-05-22T10:40:42.989Z,14.22
2019-05-22T10:41:41.933Z,14.33
2019-05-22T10:42:44.638Z,14.44
2019-05-22T10:43:41.977Z,14.43
2019-05-22T10:44:41.968Z,14.51
2019-05-22T10:45:41.880Z,14.55
2019-05-22T10:46:41.893Z,14.72
2019-05-22T10:47:41.909Z,14.82
2019-05-22T10:48:41.893Z,14.77
2019-05-22T10:49:41.891Z,14.79
2019-05-22T10:50:41.841Z,14.82
2019-05-22T10:51:41.954Z,14.99
2019-05-22T10:52:41.864Z,14.86
2019-05-22T10:53:41.780Z,14.78
2019-05-22T10:54:41.794Z,14.69
2019-05-22T10:55:41.862Z,14.69
2019-05-22T10:56:41.749Z,14.85
2019-05-22T10:57:42.803Z,14.66
2019-05-22T10:58:41.750Z,14.54
2019-05-22T10:59:41.746Z,14.58
2019-05-22T11:00:41.787Z,14.62
2019-05-22T11:01:41.711Z,14.68
2019-05-22T11:02:41.854Z,14.85
2019-05-22T11:03:41.698Z,14.99
2019-05-22T11:04:41.675Z,15.14
2019-05-22T11:05:42.151Z,15.02
2019-05-22T11:06:41.732Z,14.88
2019-05-22T11:07:41.664Z,14.86
2019-05-22T11:08:41.720Z,15.11
2019-05-22T11:09:41.664Z,15.27
2019-05-22T11:10:45.050Z,15.36
2019-05-22T11:11:41.705Z,16.08
2019-05-22T11:12:41.609Z,16.47
2019-05-22T11:13:41.664Z,17.38
2019-05-22T11:14:41.555Z,18.08
2019-05-22T11:15:41.542Z,18.20
2019-05-22T11:16:41.602Z,17.98
2019-05-22T11:17:41.602Z,17.38
2019-05-22T11:18:41.537Z,16.93
2019-05-22T11:19:41.671Z,16.28
2019-05-22T11:20:41.522Z,15.92
2019-05-22T11:21:41.554Z,15.84
2019-05-22T11:22:41.565Z,15.94
2019-05-22T11:23:51.452Z,15.82
2019-05-22T11:24:42.469Z,16.16
2019-05-22T11:25:41.654Z,16.89
2019-05-22T11:26:41.458Z,17.46
2019-05-22T11:27:41.437Z,17.41
2019-05-22T11:28:41.468Z,17.33
2019-05-22T11:29:41.403Z,16.99
2019-05-22T11:30:41.620Z,17.15
2019-05-22T11:31:41.383Z,17.36
2019-05-22T11:32:41.409Z,17.02
2019-05-22T11:33:41.368Z,17.36
2019-05-22T11:34:41.426Z,17.34
2019-05-22T11:35:41.403Z,17.56
2019-05-22T11:36:41.533Z,17.67
2019-05-22T11:37:41.317Z,17.60
2019-05-22T11:38:41.350Z,18.25
2019-05-22T11:39:44.913Z,18.81
2019-05-22T11:40:41.378Z,19.15
2019-05-22T11:41:41.291Z,18.84
2019-05-22T11:42:41.452Z,17.95
2019-05-22T11:43:41.270Z,17.57
2019-05-22T11:44:41.285Z,17.15
2019-05-22T11:45:44.972Z,16.83
2019-05-22T11:46:41.309Z,17.06
2019-05-22T11:47:41.271Z,16.93
2019-05-22T11:48:41.229Z,17.14
2019-05-22T11:49:41.332Z,17.59
2019-05-22T11:50:41.258Z,18.34
2019-05-22T11:51:41.345Z,19.07
2019-05-22T11:52:41.153Z,19.24
2019-05-22T11:53:41.301Z,18.83
2019-05-22T11:54:41.173Z,18.55
2019-05-22T11:55:45.613Z,18.71
2019-05-22T11:56:42.096Z,18.92
2019-05-22T11:57:41.157Z,18.95
2019-05-22T11:58:41.149Z,19.04
2019-05-22T11:59:41.065Z,19.12
2019-05-22T12:00:41.211Z,19.24
2019-05-22T12:01:41.180Z,19.44
2019-05-22T12:02:41.123Z,19.62
2019-05-22T12:03:41.093Z,19.88
2019-05-22T12:04:47.885Z,20.11
2019-05-22T12:05:42.014Z,20.10
2019-05-22T12:06:41.298Z,19.59
2019-05-22T12:07:41.018Z,18.68
2019-05-22T12:08:41.046Z,18.80
2019-05-22T12:09:40.991Z,19.24
2019-05-22T12:10:41.029Z,19.44
2019-05-22T12:11:43.279Z,19.34
2019-05-22T12:12:40.958Z,19.11
2019-05-22T12:13:41.069Z,18.77
2019-05-22T12:14:40.942Z,18.29
2019-05-22T12:15:40.989Z,17.92
2019-05-22T12:16:40.898Z,17.83
2019-05-22T12:17:40.994Z,17.76
2019-05-22T12:18:40.912Z,17.36
2019-05-22T12:19:40.943Z,17.30
2019-05-22T12:20:40.880Z,17.23
2019-05-22T12:21:40.841Z,17.57
2019-05-22T12:22:40.937Z,18.26
2019-05-22T12:23:40.842Z,18.19
2019-05-22T12:24:41.010Z,18.65
2019-05-22T12:25:40.820Z,19.66
2019-05-22T12:26:40.902Z,20.81
2019-05-22T12:27:40.802Z,21.40
2019-05-22T12:28:40.894Z,21.96
2019-05-22T12:29:40.803Z,21.37
2019-05-22T12:30:40.786Z,20.78
2019-05-22T12:31:40.769Z,20.04
2019-05-22T12:32:40.829Z,19.69
2019-05-22T12:33:40.794Z,19.74
2019-05-22T12:34:40.798Z,20.14
2019-05-22T12:35:41.759Z,20.80
2019-05-22T12:36:40.747Z,21.30
2019-05-22T12:37:40.719Z,21.25
2019-05-22T12:38:40.711Z,20.82
2019-05-22T12:39:40.760Z,20.43
2019-05-22T12:40:40.710Z,20.02
2019-05-22T12:41:40.792Z,19.66
2019-05-22T12:42:40.623Z,20.10
2019-05-22T12:43:44.379Z,20.00
2019-05-22T12:44:40.663Z,20.26
2019-05-22T12:45:41.662Z,20.99
2019-05-22T12:46:40.615Z,20.84
2019-05-22T12:47:41.588Z,21.21
2019-05-22T12:48:40.657Z,21.20
2019-05-22T12:49:40.554Z,20.36
2019-05-22T12:50:40.601Z,20.48
2019-05-22T12:51:40.554Z,20.67
2019-05-22T12:52:40.615Z,20.58
2019-05-22T12:53:40.565Z,20.50
2019-05-22T12:54:47.007Z,20.87